Time;durP1;ratioP1;P1;durP2;ratioP2;P2;SDS_P1;SDS_P2;PMS_P1;PMS_P2;Temp;Humidity;BMP_temperature;BMP_pressure;BME280_temperature;BME280_humidity;BME280_pressure;Samples;Min_cycle;Max_cycle;Signal;HPM_P1;HPM_P2
2023/12/25 00:04:44;;;;;;;13.57;8.07;;;;;;;;;;10494919;28;20039;-61
2023/12/25 00:09:44;;;;;;;9.57;7.15;;;;;;;;;;10494206;28;20016;-61
2023/12/25 00:14:45;;;;;;;14.98;7.90;;;;;;;;;;10494210;28;20044;-61
2023/12/25 00:19:45;;;;;;;13.50;8.07;;;;;;;;;;10487102;28;20074;-62
2023/12/25 00:24:46;;;;;;;15.73;7.15;;;;;;;;;;10486040;28;20204;-60
2023/12/25 00:29:46;;;;;;;13.50;8.15;;;;;;;;;;10484446;28;20028;-62
2023/12/25 00:34:47;;;;;;;12.20;7.50;;;;;;;;;;10492463;28;20290;-61
2023/12/25 00:39:48;;;;;;;10.75;7.95;;;;;;;;;;10490193;28;20471;-62
2023/12/25 00:44:49;;;;;;;13.30;7.07;;;;;;;;;;10473269;28;20365;-61
2023/12/25 00:49:50;;;;;;;16.80;8.52;;;;;;;;;;10468692;28;20031;-60
2023/12/25 00:54:50;;;;;;;12.82;7.28;;;;;;;;;;10490256;28;20168;-60
2023/12/25 00:59:51;;;;;;;12.18;7.57;;;;;;;;;;10490440;28;20179;-60
2023/12/25 01:04:52;;;;;;;13.70;7.43;;;;;;;;;;10472840;28;20024;-60
2023/12/25 01:09:53;;;;;;;11.82;7.80;;;;;;;;;;10487386;28;20082;-61
2023/12/25 01:14:53;;;;;;;14.20;8.07;;;;;;;;;;10482940;28;20025;-61
2023/12/25 01:19:54;;;;;;;20.83;8.13;;;;;;;;;;10489573;28;20082;-60
2023/12/25 01:24:54;;;;;;;30.20;8.77;;;;;;;;;;10468088;28;20024;-61
2023/12/25 01:29:55;;;;;;;9.88;6.97;;;;;;;;;;10464606;28;20078;-61
2023/12/25 01:34:56;;;;;;;14.65;6.93;;;;;;;;;;10463381;28;20045;-60
2023/12/25 01:39:57;;;;;;;12.95;7.63;;;;;;;;;;10465279;28;20028;-60
2023/12/25 01:44:57;;;;;;;12.85;6.90;;;;;;;;;;10464805;28;20037;-60
2023/12/25 01:50:00;;;;;;;10.90;6.93;;;;;;;;;;10465832;28;20063;-60
2023/12/25 01:55:01;;;;;;;10.05;7.53;;;;;;;;;;10464278;28;20147;-61
2023/12/25 02:00:03;;;;;;;13.88;7.13;;;;;;;;;;10477199;22;20615;-67
2023/12/25 02:05:04;;;;;;;10.90;7.07;;;;;;;;;;10484298;28;20029;-65
2023/12/25 02:10:08;;;;;;;11.00;7.00;;;;;;;;;;10515028;28;20043;-65
2023/12/25 02:15:09;;;;;;;11.52;6.97;;;;;;;;;;10530812;28;20032;-69
2023/12/25 02:20:10;;;;;;;11.57;6.53;;;;;;;;;;10537944;28;20395;-68
2023/12/25 02:25:32;;;;;;;10.68;6.80;;;;;;;;;;10539507;28;20047;-66
2023/12/25 02:30:32;;;;;;;8.13;6.45;;;;;;;;;;10538847;28;20471;-67
2023/12/25 02:35:33;;;;;;;11.18;7.20;;;;;;;;;;10539705;28;20036;-67
2023/12/25 02:40:35;;;;;;;12.98;6.85;;;;;;;;;;10538922;28;20027;-67
2023/12/25 02:45:35;;;;;;;9.13;6.40;;;;;;;;;;10538625;28;20050;-67
2023/12/25 02:50:36;;;;;;;10.25;6.30;;;;;;;;;;10538496;28;20025;-67
2023/12/25 02:55:39;;;;;;;9.25;6.50;;;;;;;;;;10539092;28;20031;-67
2023/12/25 03:00:39;;;;;;;8.77;6.50;;;;;;;;;;10538239;28;20491;-66
2023/12/25 03:05:40;;;;;;;9.88;6.43;;;;;;;;;;10538121;28;20024;-66
2023/12/25 03:10:41;;;;;;;13.15;5.97;;;;;;;;;;10538300;28;20032;-66
2023/12/25 03:15:42;;;;;;;7.82;5.70;;;;;;;;;;10537301;28;20028;-67
2023/12/25 03:20:43;;;;;;;9.48;6.03;;;;;;;;;;10537371;28;20073;-66
2023/12/25 03:25:43;;;;;;;9.30;6.20;;;;;;;;;;10536109;28;20028;-66
2023/12/25 03:30:44;;;;;;;7.88;6.13;;;;;;;;;;10537167;28;20032;-68
2023/12/25 03:35:44;;;;;;;8.43;6.18;;;;;;;;;;10536857;28;20044;-68
2023/12/25 03:40:45;;;;;;;10.95;5.68;;;;;;;;;;10537094;28;20024;-68
2023/12/25 03:45:45;;;;;;;8.80;6.10;;;;;;;;;;10536297;28;20452;-68
2023/12/25 03:50:46;;;;;;;8.18;5.82;;;;;;;;;;10536127;28;20090;-67
2023/12/25 03:55:47;;;;;;;6.45;5.50;;;;;;;;;;10535794;28;20028;-67
2023/12/25 04:00:48;;;;;;;8.02;5.43;;;;;;;;;;10536569;28;20074;-67
2023/12/25 04:05:48;;;;;;;6.45;5.35;;;;;;;;;;10517663;28;20487;-71
2023/12/25 04:10:49;;;;;;;8.40;5.75;;;;;;;;;;10535310;28;20484;-67
2023/12/25 04:15:49;;;;;;;8.73;6.03;;;;;;;;;;10535346;28;20102;-68
2023/12/25 04:20:50;;;;;;;6.95;5.30;;;;;;;;;;10534864;28;20480;-67
2023/12/25 04:25:50;;;;;;;7.25;5.40;;;;;;;;;;10534703;28;20518;-67
2023/12/25 04:30:51;;;;;;;9.35;5.88;;;;;;;;;;10535091;28;20032;-67
2023/12/25 04:35:51;;;;;;;7.72;5.22;;;;;;;;;;10534091;28;20028;-67
2023/12/25 04:40:52;;;;;;;6.60;5.05;;;;;;;;;;10533345;28;20085;-66
2023/12/25 04:45:53;;;;;;;8.50;4.93;;;;;;;;;;10534544;28;20032;-66
2023/12/25 04:50:54;;;;;;;6.57;4.93;;;;;;;;;;10533775;28;20024;-66
2023/12/25 04:55:56;;;;;;;7.47;5.10;;;;;;;;;;10533373;28;20384;-68
2023/12/25 05:00:56;;;;;;;7.60;5.32;;;;;;;;;;10534288;28;20299;-66
2023/12/25 05:05:57;;;;;;;9.82;5.40;;;;;;;;;;10533376;28;20267;-68
2023/12/25 05:11:18;;;;;;;8.27;5.38;;;;;;;;;;10533571;28;20024;-68
2023/12/25 05:16:18;;;;;;;7.28;4.80;;;;;;;;;;10402333;28;20040;-68
2023/12/25 05:21:19;;;;;;;7.57;5.10;;;;;;;;;;10402249;28;20041;-68
2023/12/25 05:26:21;;;;;;;7.10;5.35;;;;;;;;;;10401961;28;20263;-68
2023/12/25 05:31:22;;;;;;;7.97;5.20;;;;;;;;;;10402012;28;20069;-66
2023/12/25 05:36:22;;;;;;;7.25;5.28;;;;;;;;;;10401966;28;20105;-69
2023/12/25 05:41:23;;;;;;;8.45;5.05;;;;;;;;;;10401562;28;20049;-65
2023/12/25 05:46:23;;;;;;;5.15;4.32;;;;;;;;;;10401461;28;20049;-66
2023/12/25 05:51:24;;;;;;;5.20;4.70;;;;;;;;;;10447273;28;20040;-66
2023/12/25 05:56:25;;;;;;;5.10;4.60;;;;;;;;;;10531758;28;20043;-66
2023/12/25 06:01:26;;;;;;;5.38;4.57;;;;;;;;;;10531238;28;20048;-66
2023/12/25 06:06:27;;;;;;;5.43;4.30;;;;;;;;;;10531683;28;20076;-66
2023/12/25 06:11:28;;;;;;;6.90;4.85;;;;;;;;;;10531684;28;20566;-65
2023/12/25 06:16:28;;;;;;;5.70;4.63;;;;;;;;;;10530995;28;20190;-67
2023/12/25 06:21:29;;;;;;;6.40;5.18;;;;;;;;;;10531718;28;20028;-66
2023/12/25 06:26:30;;;;;;;6.05;4.75;;;;;;;;;;10531150;28;20028;-67
2023/12/25 06:31:30;;;;;;;6.15;4.55;;;;;;;;;;10531366;28;20106;-66
2023/12/25 06:36:31;;;;;;;5.32;3.92;;;;;;;;;;10530938;28;20036;-67
2023/12/25 06:41:31;;;;;;;5.38;4.20;;;;;;;;;;10530879;28;20020;-67
2023/12/25 06:46:32;;;;;;;6.03;4.95;;;;;;;;;;10530649;28;20028;-66
2023/12/25 06:51:32;;;;;;;6.90;4.68;;;;;;;;;;10530671;28;20020;-67
2023/12/25 06:56:33;;;;;;;10.63;4.68;;;;;;;;;;10530442;28;20035;-67
2023/12/25 07:01:33;;;;;;;5.10;4.45;;;;;;;;;;10530234;28;20043;-70
2023/12/25 07:06:34;;;;;;;5.05;3.97;;;;;;;;;;10538055;28;20028;-68
2023/12/25 07:11:35;;;;;;;4.72;4.22;;;;;;;;;;10538587;28;20073;-67
2023/12/25 07:16:36;;;;;;;5.53;3.83;;;;;;;;;;10537750;28;20115;-65
2023/12/25 07:21:36;;;;;;;4.65;4.07;;;;;;;;;;10536753;28;20115;-65
2023/12/25 07:26:37;;;;;;;9.55;4.07;;;;;;;;;;10536800;28;20526;-65
2023/12/25 07:31:46;;;;;;;5.47;4.22;;;;;;;;;;10536896;28;20059;-67
2023/12/25 07:36:56;;;;;;;5.03;4.18;;;;;;;;;;10536595;28;20032;-68
2023/12/25 07:41:57;;;;;;;6.90;3.92;;;;;;;;;;10536914;28;20405;-69
2023/12/25 07:46:58;;;;;;;4.97;4.03;;;;;;;;;;10536166;28;20062;-66
2023/12/25 07:51:58;;;;;;;9.18;4.53;;;;;;;;;;10535878;28;20031;-66
2023/12/25 07:56:59;;;;;;;10.73;4.32;;;;;;;;;;10536268;28;20024;-68
2023/12/25 08:02:00;;;;;;;9.02;3.60;;;;;;;;;;10535522;28;20046;-69
2023/12/25 08:07:00;;;;;;;7.22;4.25;;;;;;;;;;10535296;28;20024;-67
2023/12/25 08:12:05;;;;;;;7.75;4.38;;;;;;;;;;10534869;28;20027;-68
2023/12/25 08:17:16;;;;;;;10.07;4.10;;;;;;;;;;10535215;28;20036;-65
2023/12/25 08:22:16;;;;;;;8.15;4.97;;;;;;;;;;10533859;28;20032;-64
2023/12/25 08:27:17;;;;;;;19.25;6.25;;;;;;;;;;10534301;28;20371;-67
2023/12/25 08:32:17;;;;;;;13.52;4.90;;;;;;;;;;10533711;28;20453;-67
2023/12/25 08:37:18;;;;;;;17.13;5.60;;;;;;;;;;10534091;28;20382;-67
2023/12/25 08:42:19;;;;;;;13.13;5.65;;;;;;;;;;10533861;28;20069;-67
2023/12/25 08:47:19;;;;;;;15.15;5.13;;;;;;;;;;10509789;28;20024;-66
2023/12/25 08:52:21;;;;;;;7.90;5.03;;;;;;;;;;10506145;28;20542;-67
2023/12/25 08:57:22;;;;;;;14.85;5.40;;;;;;;;;;10506599;28;20150;-67
2023/12/25 09:02:23;;;;;;;8.55;5.45;;;;;;;;;;10505586;28;20384;-66
2023/12/25 09:07:23;;;;;;;10.43;5.60;;;;;;;;;;10505842;28;20425;-66
2023/12/25 09:12:24;;;;;;;6.93;5.13;;;;;;;;;;10505939;28;20034;-66
2023/12/25 09:17:25;;;;;;;10.38;5.60;;;;;;;;;;10505256;28;20028;-67
2023/12/25 09:22:27;;;;;;;8.23;5.50;;;;;;;;;;10506055;28;20028;-66
2023/12/25 09:27:29;;;;;;;12.70;6.00;;;;;;;;;;10505737;28;20257;-67
2023/12/25 09:32:30;;;;;;;12.95;6.03;;;;;;;;;;10504976;28;20067;-67
2023/12/25 09:37:31;;;;;;;9.35;6.03;;;;;;;;;;10505010;28;20120;-66
2023/12/25 09:42:31;;;;;;;7.35;5.65;;;;;;;;;;10520127;28;20100;-65
2023/12/25 09:47:35;;;;;;;9.55;5.25;;;;;;;;;;10508445;28;20245;-67
2023/12/25 09:52:35;;;;;;;10.43;5.80;;;;;;;;;;10524043;28;20035;-65
2023/12/25 09:57:37;;;;;;;9.82;5.35;;;;;;;;;;10528666;28;20093;-65
2023/12/25 10:02:45;;;;;;;9.20;5.43;;;;;;;;;;10530247;28;20090;-65
2023/12/25 10:07:46;;;;;;;8.67;5.73;;;;;;;;;;10524557;28;20024;-67
2023/12/25 10:12:47;;;;;;;12.70;5.55;;;;;;;;;;10515937;28;20792;-66
2023/12/25 10:17:47;;;;;;;8.18;5.55;;;;;;;;;;10527494;28;20463;-65
2023/12/25 10:22:48;;;;;;;10.70;6.13;;;;;;;;;;10520835;28;20474;-65
2023/12/25 10:27:49;;;;;;;11.57;6.40;;;;;;;;;;10527846;28;20081;-65
2023/12/25 10:33:10;;;;;;;10.43;5.72;;;;;;;;;;10530341;28;20024;-64
2023/12/25 10:38:11;;;;;;;13.82;6.70;;;;;;;;;;10534098;28;20027;-65
2023/12/25 10:43:12;;;;;;;8.63;6.20;;;;;;;;;;10539390;28;20021;-66
2023/12/25 10:48:13;;;;;;;15.90;7.35;;;;;;;;;;10520826;28;20104;-64
2023/12/25 10:53:17;;;;;;;14.43;6.50;;;;;;;;;;10534092;28;20030;-64
2023/12/25 10:58:20;;;;;;;14.70;6.80;;;;;;;;;;10507489;28;20062;-66
2023/12/25 11:03:21;;;;;;;11.02;6.53;;;;;;;;;;10526420;28;20040;-65
2023/12/25 11:08:22;;;;;;;25.67;8.25;;;;;;;;;;10534138;28;20456;-66
2023/12/25 11:13:25;;;;;;;13.32;6.45;;;;;;;;;;10514062;28;20455;-66
2023/12/25 11:18:27;;;;;;;13.60;6.35;;;;;;;;;;10498039;28;20044;-66
2023/12/25 11:23:31;;;;;;;16.15;6.47;;;;;;;;;;10514571;28;20028;-65
2023/12/25 11:28:37;;;;;;;19.50;5.90;;;;;;;;;;10507783;28;20028;-65
2023/12/25 11:33:45;;;;;;;11.23;6.40;;;;;;;;;;10508961;28;20093;-66
2023/12/25 11:38:55;;;;;;;16.58;6.65;;;;;;;;;;10523290;28;20107;-67
2023/12/25 11:44:08;;;;;;;20.42;6.82;;;;;;;;;;10536600;28;20391;-67
2023/12/25 11:49:09;;;;;;;15.52;5.68;;;;;;;;;;10536869;28;20035;-66
2023/12/25 11:54:11;;;;;;;13.43;5.88;;;;;;;;;;10537321;28;20024;-67
2023/12/25 11:59:12;;;;;;;12.63;5.70;;;;;;;;;;10536178;28;20048;-67
2023/12/25 12:04:13;;;;;;;14.75;6.22;;;;;;;;;;10536822;28;20481;-67
2023/12/25 12:09:14;;;;;;;15.38;5.70;;;;;;;;;;10536506;28;20032;-68
2023/12/25 12:14:15;;;;;;;12.32;5.97;;;;;;;;;;10518155;28;20032;-71
2023/12/25 12:19:16;;;;;;;14.25;6.25;;;;;;;;;;10534746;28;20035;-67
2023/12/25 12:24:28;;;;;;;12.63;5.57;;;;;;;;;;10517330;28;20035;-67
2023/12/25 12:29:28;;;;;;;9.00;5.97;;;;;;;;;;10535242;28;20073;-67
2023/12/25 12:34:29;;;;;;;12.63;6.43;;;;;;;;;;10534976;28;20024;-66
2023/12/25 12:39:31;;;;;;;10.63;6.00;;;;;;;;;;10534192;28;20020;-66
2023/12/25 12:44:31;;;;;;;13.32;6.40;;;;;;;;;;10535314;28;20031;-67
2023/12/25 12:49:32;;;;;;;14.75;5.63;;;;;;;;;;10535324;28;20036;-66
2023/12/25 12:54:33;;;;;;;13.80;5.50;;;;;;;;;;10529973;28;20027;-66
2023/12/25 12:59:33;;;;;;;8.32;5.47;;;;;;;;;;10533212;28;20039;-66
2023/12/25 13:04:34;;;;;;;7.45;5.57;;;;;;;;;;10534303;28;20028;-66
2023/12/25 13:09:35;;;;;;;11.27;6.65;;;;;;;;;;10533463;28;20108;-67
2023/12/25 13:14:35;;;;;;;10.73;5.57;;;;;;;;;;10533381;28;20035;-70
2023/12/25 13:19:36;;;;;;;10.32;6.22;;;;;;;;;;10533436;28;20016;-66
2023/12/25 13:24:36;;;;;;;8.98;5.50;;;;;;;;;;10533228;28;20548;-67
2023/12/25 13:29:37;;;;;;;7.65;5.65;;;;;;;;;;10532906;28;20024;-67
2023/12/25 13:34:37;;;;;;;8.88;5.60;;;;;;;;;;10532033;28;20498;-67
2023/12/25 13:39:41;;;;;;;11.95;5.45;;;;;;;;;;10532531;28;20031;-67
2023/12/25 13:44:42;;;;;;;9.77;5.45;;;;;;;;;;10532547;28;20056;-67
2023/12/25 13:49:43;;;;;;;10.25;5.47;;;;;;;;;;10532195;28;20492;-67
2023/12/25 13:54:43;;;;;;;9.50;5.63;;;;;;;;;;10532226;28;20107;-66
2023/12/25 13:59:44;;;;;;;14.35;6.13;;;;;;;;;;10528406;28;20047;-67
2023/12/25 14:04:45;;;;;;;8.95;5.55;;;;;;;;;;10532143;28;20498;-67
2023/12/25 14:09:47;;;;;;;8.60;5.65;;;;;;;;;;10532488;28;20229;-66
2023/12/25 14:14:48;;;;;;;8.95;5.40;;;;;;;;;;10538753;28;20036;-71
2023/12/25 14:19:48;;;;;;;12.15;5.90;;;;;;;;;;10540599;28;20036;-67
2023/12/25 14:24:49;;;;;;;11.38;5.80;;;;;;;;;;10540292;28;20043;-67
2023/12/25 14:29:50;;;;;;;7.68;4.90;;;;;;;;;;10539867;28;20029;-67
2023/12/25 14:34:50;;;;;;;9.52;5.50;;;;;;;;;;10539808;28;20028;-66
2023/12/25 14:39:51;;;;;;;7.65;5.25;;;;;;;;;;10539490;28;20376;-67
2023/12/25 14:44:52;;;;;;;9.52;6.07;;;;;;;;;;10539368;28;20130;-66
2023/12/25 14:49:52;;;;;;;6.60;5.25;;;;;;;;;;10539181;28;20470;-67
2023/12/25 14:54:53;;;;;;;8.40;5.75;;;;;;;;;;10539193;28;20031;-67
2023/12/25 14:59:53;;;;;;;7.13;5.25;;;;;;;;;;10539069;28;20050;-67
2023/12/25 15:04:59;;;;;;;7.55;5.60;;;;;;;;;;10538780;28;20028;-70
2023/12/25 15:10:00;;;;;;;8.48;5.90;;;;;;;;;;10537064;28;20036;-66
2023/12/25 15:15:01;;;;;;;8.77;5.90;;;;;;;;;;10531303;28;20031;-69
2023/12/25 15:20:03;;;;;;;7.60;5.40;;;;;;;;;;10536013;28;20046;-66
2023/12/25 15:25:04;;;;;;;12.70;5.43;;;;;;;;;;10532667;28;20028;-66
2023/12/25 15:30:06;;;;;;;9.75;5.75;;;;;;;;;;10536837;28;20109;-65
2023/12/25 15:35:08;;;;;;;19.13;6.65;;;;;;;;;;10527807;28;20103;-66
2023/12/25 15:40:10;;;;;;;7.90;5.65;;;;;;;;;;10523851;28;20024;-66
2023/12/25 15:45:10;;;;;;;8.93;5.65;;;;;;;;;;10535757;28;20532;-66
2023/12/25 15:50:11;;;;;;;12.38;6.38;;;;;;;;;;10525596;28;20027;-66
2023/12/25 15:55:14;;;;;;;17.02;6.25;;;;;;;;;;10524767;28;20063;-66
2023/12/25 16:00:15;;;;;;;16.90;6.25;;;;;;;;;;10519023;28;20502;-66
2023/12/25 16:05:16;;;;;;;17.33;6.90;;;;;;;;;;10516464;28;20120;-67
2023/12/25 16:10:17;;;;;;;17.00;6.20;;;;;;;;;;10522557;28;20229;-66
2023/12/25 16:15:17;;;;;;;17.40;5.95;;;;;;;;;;10522140;28;20110;-70
2023/12/25 16:20:18;;;;;;;15.13;5.97;;;;;;;;;;10535376;28;20028;-65
2023/12/25 16:25:18;;;;;;;14.45;6.53;;;;;;;;;;10535727;28;20024;-66
2023/12/25 16:30:19;;;;;;;13.55;5.80;;;;;;;;;;10535483;28;20024;-65
2023/12/25 16:35:20;;;;;;;14.65;6.57;;;;;;;;;;10534178;28;20042;-65
2023/12/25 16:40:22;;;;;;;15.00;6.68;;;;;;;;;;10535318;28;20027;-65
2023/12/25 16:45:23;;;;;;;17.95;6.15;;;;;;;;;;10535042;28;20406;-65
2023/12/25 16:50:23;;;;;;;17.38;6.38;;;;;;;;;;10534672;28;20024;-65
2023/12/25 16:55:24;;;;;;;17.65;5.97;;;;;;;;;;10534720;28;20024;-65
2023/12/25 17:00:25;;;;;;;13.02;6.35;;;;;;;;;;10534575;28;20472;-65
2023/12/25 17:05:25;;;;;;;9.15;6.07;;;;;;;;;;10534654;28;20036;-65
2023/12/25 17:10:26;;;;;;;8.07;6.00;;;;;;;;;;10534651;28;20043;-65
2023/12/25 17:15:27;;;;;;;8.10;6.20;;;;;;;;;;10533823;28;20425;-69
2023/12/25 17:20:27;;;;;;;17.48;6.88;;;;;;;;;;10533551;28;20020;-65
2023/12/25 17:25:28;;;;;;;9.30;5.82;;;;;;;;;;10533473;28;20024;-65
2023/12/25 17:30:29;;;;;;;9.05;6.25;;;;;;;;;;10533746;28;20020;-65
2023/12/25 17:35:30;;;;;;;13.35;6.65;;;;;;;;;;10532555;28;20050;-65
2023/12/25 17:40:31;;;;;;;10.48;6.40;;;;;;;;;;10532923;28;20027;-65
2023/12/25 17:45:32;;;;;;;11.52;6.50;;;;;;;;;;10532653;28;20361;-66
2023/12/25 17:50:32;;;;;;;8.68;5.90;;;;;;;;;;10532089;28;20023;-66
2023/12/25 17:55:33;;;;;;;12.48;5.97;;;;;;;;;;10532176;28;20466;-67
2023/12/25 18:00:35;;;;;;;11.50;6.60;;;;;;;;;;10532274;28;20478;-67
2023/12/25 18:05:35;;;;;;;8.05;6.18;;;;;;;;;;10531928;28;20082;-67
2023/12/25 18:10:36;;;;;;;15.90;7.00;;;;;;;;;;10532159;28;20498;-66
2023/12/25 18:15:37;;;;;;;10.07;6.60;;;;;;;;;;10532127;28;20081;-69
2023/12/25 18:20:37;;;;;;;9.63;6.03;;;;;;;;;;10532405;28;20028;-66
2023/12/25 18:25:38;;;;;;;8.35;6.43;;;;;;;;;;10532178;28;20027;-67
2023/12/25 18:30:39;;;;;;;11.80;6.63;;;;;;;;;;10531678;28;20074;-66
2023/12/25 18:35:40;;;;;;;9.02;6.32;;;;;;;;;;10531976;28;20124;-66
2023/12/25 18:40:41;;;;;;;10.25;6.47;;;;;;;;;;10531791;28;20020;-66
2023/12/25 18:45:42;;;;;;;9.75;6.53;;;;;;;;;;10531976;28;20043;-66
2023/12/25 18:50:44;;;;;;;13.60;6.65;;;;;;;;;;10531384;28;20028;-66
2023/12/25 18:55:44;;;;;;;8.98;6.45;;;;;;;;;;10531222;28;20383;-66
2023/12/25 19:00:45;;;;;;;12.25;6.93;;;;;;;;;;10536308;28;20044;-67
2023/12/25 19:05:45;;;;;;;10.40;6.28;;;;;;;;;;10538378;28;20032;-67
2023/12/25 19:10:47;;;;;;;9.07;6.65;;;;;;;;;;10539144;28;20256;-67
2023/12/25 19:15:48;;;;;;;10.57;6.55;;;;;;;;;;10538677;28;20024;-69
2023/12/25 19:20:49;;;;;;;9.25;6.80;;;;;;;;;;10538430;28;20021;-67
2023/12/25 19:25:50;;;;;;;10.48;6.57;;;;;;;;;;10537908;28;20024;-67
2023/12/25 19:30:51;;;;;;;12.95;6.93;;;;;;;;;;10537721;28;20035;-68
2023/12/25 19:35:52;;;;;;;14.07;7.03;;;;;;;;;;10534993;28;20598;-66
2023/12/25 19:40:53;;;;;;;9.65;7.30;;;;;;;;;;10519439;28;20036;-66
2023/12/25 19:45:54;;;;;;;17.50;7.85;;;;;;;;;;10537222;28;20020;-66
2023/12/25 19:50:56;;;;;;;11.18;7.47;;;;;;;;;;10536969;28;20032;-67
2023/12/25 19:55:56;;;;;;;9.30;7.78;;;;;;;;;;10537319;28;20035;-66
2023/12/25 20:00:57;;;;;;;12.50;7.65;;;;;;;;;;10536442;28;20044;-66
2023/12/25 20:05:58;;;;;;;18.77;7.90;;;;;;;;;;10536692;28;20379;-66
2023/12/25 20:10:59;;;;;;;13.80;7.75;;;;;;;;;;10535644;28;20074;-66
2023/12/25 20:15:59;;;;;;;11.95;7.43;;;;;;;;;;10535759;28;20039;-67
2023/12/25 20:21:00;;;;;;;14.55;7.60;;;;;;;;;;10534876;28;20080;-68
2023/12/25 20:26:00;;;;;;;19.63;7.53;;;;;;;;;;10534947;28;20024;-67
2023/12/25 20:31:01;;;;;;;13.15;7.90;;;;;;;;;;10534817;28;20057;-66
2023/12/25 20:36:02;;;;;;;17.98;8.18;;;;;;;;;;10535046;28;20024;-68
2023/12/25 20:41:03;;;;;;;24.65;8.57;;;;;;;;;;10534006;28;20076;-67
2023/12/25 20:46:04;;;;;;;37.25;8.55;;;;;;;;;;10533582;28;20028;-67
2023/12/25 20:51:04;;;;;;;16.17;8.13;;;;;;;;;;10534126;28;20102;-67
2023/12/25 20:56:06;;;;;;;17.50;8.32;;;;;;;;;;10534385;28;20035;-68
2023/12/25 21:01:07;;;;;;;16.00;7.95;;;;;;;;;;10534127;28;20048;-67
2023/12/25 21:06:18;;;;;;;16.55;8.02;;;;;;;;;;10533632;28;20475;-67
2023/12/25 21:11:21;;;;;;;19.40;8.75;;;;;;;;;;10534759;28;20038;-68
2023/12/25 21:16:23;;;;;;;13.45;8.30;;;;;;;;;;10533215;28;20048;-69
2023/12/25 21:21:24;;;;;;;13.55;8.68;;;;;;;;;;10533030;28;20462;-68
2023/12/25 21:26:24;;;;;;;16.45;8.45;;;;;;;;;;10534040;28;20024;-68
2023/12/25 21:31:25;;;;;;;16.60;9.10;;;;;;;;;;10533296;28;20028;-68
2023/12/25 21:36:26;;;;;;;13.63;8.32;;;;;;;;;;10532710;28;20041;-68
2023/12/25 21:41:27;;;;;;;14.70;8.07;;;;;;;;;;10532898;28;20070;-68
2023/12/25 21:46:27;;;;;;;14.32;8.57;;;;;;;;;;10533306;28;20030;-68
2023/12/25 21:51:31;;;;;;;13.75;8.60;;;;;;;;;;10532664;28;20032;-67
2023/12/25 21:56:52;;;;;;;13.07;8.75;;;;;;;;;;10532269;28;20517;-69
2023/12/25 22:01:52;;;;;;;12.75;8.73;;;;;;;;;;10401664;28;20049;-68
2023/12/25 22:06:53;;;;;;;13.93;8.80;;;;;;;;;;10401611;28;20290;-68
2023/12/25 22:11:53;;;;;;;11.88;8.77;;;;;;;;;;10401883;28;20504;-68
2023/12/25 22:16:54;;;;;;;15.40;8.43;;;;;;;;;;10401944;28;20144;-67
2023/12/25 22:21:55;;;;;;;13.60;8.05;;;;;;;;;;10400010;28;20057;-66
2023/12/25 22:26:55;;;;;;;14.95;9.15;;;;;;;;;;10401350;28;20133;-68
2023/12/25 22:31:56;;;;;;;17.80;8.18;;;;;;;;;;10402148;28;20046;-66
2023/12/25 22:36:56;;;;;;;14.07;8.82;;;;;;;;;;10454800;28;20140;-68
2023/12/25 22:41:57;;;;;;;21.55;9.85;;;;;;;;;;10539758;28;20107;-68
2023/12/25 22:46:58;;;;;;;17.23;9.38;;;;;;;;;;10539763;28;20046;-68
2023/12/25 22:51:58;;;;;;;13.15;8.50;;;;;;;;;;10539637;28;20024;-68
2023/12/25 22:56:59;;;;;;;13.48;8.65;;;;;;;;;;10539704;28;20034;-68
2023/12/25 23:02:02;;;;;;;21.83;9.57;;;;;;;;;;10539466;28;20036;-68
2023/12/25 23:07:03;;;;;;;14.63;8.68;;;;;;;;;;10539418;28;20028;-68
2023/12/25 23:12:04;;;;;;;11.95;8.65;;;;;;;;;;10538961;28;20103;-68
2023/12/25 23:17:06;;;;;;;12.57;9.43;;;;;;;;;;10538553;28;20071;-68
2023/12/25 23:22:07;;;;;;;17.20;9.73;;;;;;;;;;10537898;28;20028;-68
2023/12/25 23:27:07;;;;;;;13.48;9.70;;;;;;;;;;10539122;28;20059;-68
2023/12/25 23:32:08;;;;;;;13.98;8.93;;;;;;;;;;10537360;28;20498;-69
2023/12/25 23:37:08;;;;;;;15.45;9.68;;;;;;;;;;10537434;28;20024;-66
2023/12/25 23:42:09;;;;;;;18.98;9.15;;;;;;;;;;10534799;28;20144;-73
2023/12/25 23:47:10;;;;;;;14.95;9.00;;;;;;;;;;10536820;28;20464;-69
2023/12/25 23:52:10;;;;;;;20.92;9.02;;;;;;;;;;10537021;28;20077;-74
2023/12/25 23:57:11;;;;;;;15.90;8.60;;;;;;;;;;10536785;28;20269;-70
